sensor_id;sensor_type;location;lat;lon;timestamp;pressure;altitude;pressure_sealevel;temperature;humidity
59789;BME280;47353;51.614;5.530;2024-03-02T00:00:14;99686.16;;;8.19;94.06
59789;BME280;47353;51.614;5.530;2024-03-02T00:02:43;99692.31;;;8.11;94.77
59789;BME280;47353;51.614;5.530;2024-03-02T00:05:17;99690.06;;;8.13;95.30
59789;BME280;47353;51.614;5.530;2024-03-02T00:07:44;99694.78;;;8.12;96.08
59789;BME280;47353;51.614;5.530;2024-03-02T00:10:11;99704.97;;;8.12;96.26
59789;BME280;47353;51.614;5.530;2024-03-02T00:12:40;99709.47;;;8.65;93.60
59789;BME280;47353;51.614;5.530;2024-03-02T00:17:55;99737.69;;;8.81;92.10
59789;BME280;47353;51.614;5.530;2024-03-02T00:20:24;99733.72;;;8.92;91.51
59789;BME280;47353;51.614;5.530;2024-03-02T00:23:05;99772.13;;;9.12;90.84
59789;BME280;47353;51.614;5.530;2024-03-02T00:28:22;99819.84;;;8.26;100.00
59789;BME280;47353;51.614;5.530;2024-03-02T00:30:57;99809.84;;;7.92;100.00
59789;BME280;47353;51.614;5.530;2024-03-02T00:33:26;99820.09;;;7.76;100.00
59789;BME280;47353;51.614;5.530;2024-03-02T00:35:52;99818.56;;;7.55;100.00
59789;BME280;47353;51.614;5.530;2024-03-02T00:38:17;99804.16;;;7.68;100.00
59789;BME280;47353;51.614;5.530;2024-03-02T00:40:43;99808.47;;;7.31;100.00
59789;BME280;47353;51.614;5.530;2024-03-02T00:46:03;99803.19;;;7.44;100.00
59789;BME280;47353;51.614;5.530;2024-03-02T00:48:29;99811.09;;;7.56;100.00
59789;BME280;47353;51.614;5.530;2024-03-02T00:50:56;99807.28;;;7.47;100.00
59789;BME280;47353;51.614;5.530;2024-03-02T00:53:23;99802.34;;;7.44;100.00
59789;BME280;47353;51.614;5.530;2024-03-02T00:55:51;99819.50;;;7.26;100.00
59789;BME280;47353;51.614;5.530;2024-03-02T00:58:17;99820.63;;;7.25;100.00
59789;BME280;47353;51.614;5.530;2024-03-02T01:00:42;99838.22;;;7.19;100.00
59789;BME280;47353;51.614;5.530;2024-03-02T01:03:08;99830.00;;;7.09;100.00
59789;BME280;47353;51.614;5.530;2024-03-02T01:05:33;99820.53;;;7.45;100.00
59789;BME280;47353;51.614;5.530;2024-03-02T01:07:59;99829.91;;;7.39;100.00
59789;BME280;47353;51.614;5.530;2024-03-02T01:10:24;99825.84;;;7.11;100.00
59789;BME280;47353;51.614;5.530;2024-03-02T01:12:51;99827.22;;;7.19;100.00
59789;BME280;47353;51.614;5.530;2024-03-02T01:15:17;99824.94;;;7.36;100.00
59789;BME280;47353;51.614;5.530;2024-03-02T01:17:42;99834.09;;;7.26;100.00
59789;BME280;47353;51.614;5.530;2024-03-02T01:20:08;99825.50;;;7.38;100.00
59789;BME280;47353;51.614;5.530;2024-03-02T01:22:34;99821.41;;;7.25;100.00
59789;BME280;47353;51.614;5.530;2024-03-02T01:25:01;99825.06;;;7.11;100.00
59789;BME280;47353;51.614;5.530;2024-03-02T01:27:26;99831.06;;;7.18;100.00
59789;BME280;47353;51.614;5.530;2024-03-02T01:29:52;99819.81;;;7.09;100.00
59789;BME280;47353;51.614;5.530;2024-03-02T01:32:17;99817.03;;;7.19;100.00
59789;BME280;47353;51.614;5.530;2024-03-02T01:34:43;99817.91;;;7.00;100.00
59789;BME280;47353;51.614;5.530;2024-03-02T01:37:08;99827.81;;;7.06;100.00
59789;BME280;47353;51.614;5.530;2024-03-02T01:39:35;99829.38;;;7.32;100.00
59789;BME280;47353;51.614;5.530;2024-03-02T01:42:01;99818.94;;;7.19;100.00
59789;BME280;47353;51.614;5.530;2024-03-02T01:44:26;99819.84;;;7.04;100.00
59789;BME280;47353;51.614;5.530;2024-03-02T01:46:52;99820.84;;;7.28;100.00
59789;BME280;47353;51.614;5.530;2024-03-02T01:49:17;99835.47;;;7.19;100.00
59789;BME280;47353;51.614;5.530;2024-03-02T01:51:44;99836.00;;;7.26;100.00
59789;BME280;47353;51.614;5.530;2024-03-02T01:54:09;99833.22;;;7.36;100.00
59789;BME280;47353;51.614;5.530;2024-03-02T01:56:35;99820.06;;;7.13;100.00
59789;BME280;47353;51.614;5.530;2024-03-02T01:59:01;99823.69;;;7.03;100.00
59789;BME280;47353;51.614;5.530;2024-03-02T02:01:26;99825.78;;;7.31;100.00
59789;BME280;47353;51.614;5.530;2024-03-02T02:03:52;99821.13;;;7.32;100.00
59789;BME280;47353;51.614;5.530;2024-03-02T02:06:17;99826.13;;;7.20;100.00
59789;BME280;47353;51.614;5.530;2024-03-02T02:08:43;99834.88;;;7.37;100.00
59789;BME280;47353;51.614;5.530;2024-03-02T02:11:08;99833.25;;;7.26;100.00
59789;BME280;47353;51.614;5.530;2024-03-02T02:13:34;99826.28;;;7.53;100.00
59789;BME280;47353;51.614;5.530;2024-03-02T02:16:07;99823.03;;;7.36;100.00
59789;BME280;47353;51.614;5.530;2024-03-02T02:18:32;99817.72;;;7.60;100.00
59789;BME280;47353;51.614;5.530;2024-03-02T02:20:58;99817.53;;;7.36;100.00
59789;BME280;47353;51.614;5.530;2024-03-02T02:23:23;99818.66;;;7.30;100.00
59789;BME280;47353;51.614;5.530;2024-03-02T02:25:49;99823.31;;;7.30;100.00
59789;BME280;47353;51.614;5.530;2024-03-02T02:28:14;99830.72;;;7.39;100.00
59789;BME280;47353;51.614;5.530;2024-03-02T02:30:39;99826.63;;;7.27;100.00
59789;BME280;47353;51.614;5.530;2024-03-02T02:33:05;99823.09;;;7.21;100.00
59789;BME280;47353;51.614;5.530;2024-03-02T02:35:30;99831.06;;;7.23;100.00
59789;BME280;47353;51.614;5.530;2024-03-02T02:37:56;99822.25;;;7.21;100.00
59789;BME280;47353;51.614;5.530;2024-03-02T02:40:23;99822.25;;;7.21;100.00
59789;BME280;47353;51.614;5.530;2024-03-02T02:42:48;99819.22;;;7.27;100.00
59789;BME280;47353;51.614;5.530;2024-03-02T02:45:14;99821.69;;;7.19;100.00
59789;BME280;47353;51.614;5.530;2024-03-02T02:47:43;99813.19;;;7.20;100.00
59789;BME280;47353;51.614;5.530;2024-03-02T02:50:11;99805.25;;;7.04;100.00
59789;BME280;47353;51.614;5.530;2024-03-02T02:52:37;99807.44;;;7.07;100.00
59789;BME280;47353;51.614;5.530;2024-03-02T02:55:05;99806.63;;;7.01;100.00
59789;BME280;47353;51.614;5.530;2024-03-02T02:57:32;99826.34;;;7.28;100.00
59789;BME280;47353;51.614;5.530;2024-03-02T03:00:01;99830.00;;;7.14;100.00
59789;BME280;47353;51.614;5.530;2024-03-02T03:02:30;99831.63;;;7.15;100.00
59789;BME280;47353;51.614;5.530;2024-03-02T03:04:56;99830.00;;;7.09;100.00
59789;BME280;47353;51.614;5.530;2024-03-02T03:07:22;99825.63;;;7.03;100.00
59789;BME280;47353;51.614;5.530;2024-03-02T03:09:48;99826.44;;;7.03;100.00
59789;BME280;47353;51.614;5.530;2024-03-02T03:12:13;99837.19;;;6.95;100.00
59789;BME280;47353;51.614;5.530;2024-03-02T03:14:40;99837.97;;;7.15;100.00
59789;BME280;47353;51.614;5.530;2024-03-02T03:17:06;99828.63;;;7.06;100.00
59789;BME280;47353;51.614;5.530;2024-03-02T03:19:33;99850.09;;;7.09;100.00
59789;BME280;47353;51.614;5.530;2024-03-02T03:21:58;99836.31;;;7.14;100.00
59789;BME280;47353;51.614;5.530;2024-03-02T03:24:24;99833.28;;;7.16;100.00
59789;BME280;47353;51.614;5.530;2024-03-02T03:26:49;99843.47;;;7.15;100.00
59789;BME280;47353;51.614;5.530;2024-03-02T03:29:14;99845.66;;;7.23;100.00
59789;BME280;47353;51.614;5.530;2024-03-02T03:31:40;99847.88;;;7.16;100.00
59789;BME280;47353;51.614;5.530;2024-03-02T03:34:05;99833.31;;;7.11;100.00
59789;BME280;47353;51.614;5.530;2024-03-02T03:36:31;99844.34;;;6.86;100.00
59789;BME280;47353;51.614;5.530;2024-03-02T03:38:56;99843.78;;;6.99;100.00
59789;BME280;47353;51.614;5.530;2024-03-02T03:41:23;99842.44;;;6.86;100.00
59789;BME280;47353;51.614;5.530;2024-03-02T03:43:49;99840.19;;;7.03;100.00
59789;BME280;47353;51.614;5.530;2024-03-02T03:46:15;99852.84;;;6.94;100.00
59789;BME280;47353;51.614;5.530;2024-03-02T03:48:40;99862.75;;;7.10;100.00
59789;BME280;47353;51.614;5.530;2024-03-02T03:51:07;99861.66;;;6.91;100.00
59789;BME280;47353;51.614;5.530;2024-03-02T03:53:32;99849.81;;;7.06;100.00
59789;BME280;47353;51.614;5.530;2024-03-02T03:55:58;99851.75;;;7.00;100.00
59789;BME280;47353;51.614;5.530;2024-03-02T03:58:23;99859.75;;;6.97;100.00
59789;BME280;47353;51.614;5.530;2024-03-02T04:00:48;99860.00;;;7.10;100.00
59789;BME280;47353;51.614;5.530;2024-03-02T04:03:14;99847.09;;;6.91;100.00
59789;BME280;47353;51.614;5.530;2024-03-02T04:05:39;99856.72;;;7.03;100.00
59789;BME280;47353;51.614;5.530;2024-03-02T04:08:05;99864.16;;;6.88;100.00
59789;BME280;47353;51.614;5.530;2024-03-02T04:10:30;99864.44;;;6.76;100.00
59789;BME280;47353;51.614;5.530;2024-03-02T04:12:55;99859.75;;;6.76;100.00
59789;BME280;47353;51.614;5.530;2024-03-02T04:15:21;99864.69;;;6.95;100.00
59789;BME280;47353;51.614;5.530;2024-03-02T04:17:48;99867.19;;;6.76;100.00
59789;BME280;47353;51.614;5.530;2024-03-02T04:20:13;99863.59;;;6.65;100.00
59789;BME280;47353;51.614;5.530;2024-03-02T04:22:39;99860.31;;;6.73;100.00
59789;BME280;47353;51.614;5.530;2024-03-02T04:25:04;99871.84;;;6.65;100.00
59789;BME280;47353;51.614;5.530;2024-03-02T04:27:31;99870.47;;;6.68;100.00
59789;BME280;47353;51.614;5.530;2024-03-02T04:29:59;99865.25;;;6.66;100.00
59789;BME280;47353;51.614;5.530;2024-03-02T04:32:26;99860.56;;;6.47;100.00
59789;BME280;47353;51.614;5.530;2024-03-02T04:34:52;99850.38;;;6.32;100.00
59789;BME280;47353;51.614;5.530;2024-03-02T04:37:17;99853.69;;;6.29;100.00
59789;BME280;47353;51.614;5.530;2024-03-02T04:39:43;99860.28;;;6.33;100.00
59789;BME280;47353;51.614;5.530;2024-03-02T04:42:08;99864.69;;;6.24;100.00
59789;BME280;47353;51.614;5.530;2024-03-02T04:44:34;99859.75;;;6.21;100.00
59789;BME280;47353;51.614;5.530;2024-03-02T04:46:59;99869.63;;;6.27;100.00
59789;BME280;47353;51.614;5.530;2024-03-02T04:49:24;99869.66;;;6.42;100.00
59789;BME280;47353;51.614;5.530;2024-03-02T04:51:50;99864.13;;;6.32;100.00
59789;BME280;47353;51.614;5.530;2024-03-02T04:54:15;99866.34;;;6.40;100.00
59789;BME280;47353;51.614;5.530;2024-03-02T04:56:41;99867.16;;;6.36;100.00
59789;BME280;47353;51.614;5.530;2024-03-02T04:59:10;99873.50;;;6.51;100.00
59789;BME280;47353;51.614;5.530;2024-03-02T05:01:36;99877.91;;;6.47;100.00
59789;BME280;47353;51.614;5.530;2024-03-02T05:04:01;99875.97;;;6.58;100.00
59789;BME280;47353;51.614;5.530;2024-03-02T05:06:27;99872.66;;;6.56;100.00
59789;BME280;47353;51.614;5.530;2024-03-02T05:08:52;99871.84;;;6.80;100.00
59789;BME280;47353;51.614;5.530;2024-03-02T05:11:17;99871.03;;;6.60;100.00
59789;BME280;47353;51.614;5.530;2024-03-02T05:14:01;99883.66;;;6.51;100.00
59789;BME280;47353;51.614;5.530;2024-03-02T05:16:27;99877.63;;;6.49;100.00
59789;BME280;47353;51.614;5.530;2024-03-02T05:18:52;99884.22;;;6.53;100.00
59789;BME280;47353;51.614;5.530;2024-03-02T05:21:18;99877.88;;;6.27;100.00
59789;BME280;47353;51.614;5.530;2024-03-02T05:23:43;99880.03;;;6.15;100.00
59789;BME280;47353;51.614;5.530;2024-03-02T05:26:09;99884.16;;;6.03;100.00
59789;BME280;47353;51.614;5.530;2024-03-02T05:28:38;99884.13;;;5.98;100.00
59789;BME280;47353;51.614;5.530;2024-03-02T05:31:04;99884.19;;;6.33;100.00
59789;BME280;47353;51.614;5.530;2024-03-02T05:33:29;99902.53;;;6.12;100.00
59789;BME280;47353;51.614;5.530;2024-03-02T05:35:56;99895.66;;;6.05;100.00
59789;BME280;47353;51.614;5.530;2024-03-02T05:38:22;99902.28;;;6.09;100.00
59789;BME280;47353;51.614;5.530;2024-03-02T05:40:47;99904.78;;;6.35;100.00
59789;BME280;47353;51.614;5.530;2024-03-02T05:43:13;99910.84;;;6.32;100.00
59789;BME280;47353;51.614;5.530;2024-03-02T05:45:38;99908.94;;;6.38;100.00
59789;BME280;47353;51.614;5.530;2024-03-02T05:48:06;99915.50;;;6.27;100.00
59789;BME280;47353;51.614;5.530;2024-03-02T05:50:32;99917.50;;;6.61;100.00
59789;BME280;47353;51.614;5.530;2024-03-02T05:52:58;99913.91;;;6.41;100.00
59789;BME280;47353;51.614;5.530;2024-03-02T05:55:24;99916.63;;;6.36;100.00
59789;BME280;47353;51.614;5.530;2024-03-02T05:57:49;99919.94;;;6.48;100.00
59789;BME280;47353;51.614;5.530;2024-03-02T06:00:28;99921.63;;;6.49;100.00
59789;BME280;47353;51.614;5.530;2024-03-02T06:02:53;99914.72;;;6.51;100.00
59789;BME280;47353;51.614;5.530;2024-03-02T06:05:19;99923.81;;;6.52;100.00
59789;BME280;47353;51.614;5.530;2024-03-02T06:07:44;99922.16;;;6.61;100.00
59789;BME280;47353;51.614;5.530;2024-03-02T06:10:10;99920.78;;;6.48;100.00
59789;BME280;47353;51.614;5.530;2024-03-02T06:12:36;99922.47;;;6.64;100.00
59789;BME280;47353;51.614;5.530;2024-03-02T06:15:01;99923.50;;;6.43;100.00
59789;BME280;47353;51.614;5.530;2024-03-02T06:17:27;99924.06;;;6.30;100.00
59789;BME280;47353;51.614;5.530;2024-03-02T06:19:52;99938.38;;;6.57;100.00
59789;BME280;47353;51.614;5.530;2024-03-02T06:22:18;99940.84;;;6.49;100.00
59789;BME280;47353;51.614;5.530;2024-03-02T06:24:44;99938.09;;;6.54;100.00
59789;BME280;47353;51.614;5.530;2024-03-02T06:27:09;99940.31;;;6.62;100.00
59789;BME280;47353;51.614;5.530;2024-03-02T06:29:35;99933.47;;;6.79;100.00
59789;BME280;47353;51.614;5.530;2024-03-02T06:32:00;99941.44;;;6.66;100.00
59789;BME280;47353;51.614;5.530;2024-03-02T06:34:26;99926.84;;;6.60;100.00
59789;BME280;47353;51.614;5.530;2024-03-02T06:36:51;99933.72;;;6.68;100.00
59789;BME280;47353;51.614;5.530;2024-03-02T06:39:16;99937.28;;;6.53;100.00
59789;BME280;47353;51.614;5.530;2024-03-02T06:41:42;99936.75;;;6.66;100.00
59789;BME280;47353;51.614;5.530;2024-03-02T06:44:12;99937.78;;;6.35;100.00
59789;BME280;47353;51.614;5.530;2024-03-02T06:46:38;99946.03;;;6.40;100.00
59789;BME280;47353;51.614;5.530;2024-03-02T06:49:03;99947.66;;;6.26;100.00
59789;BME280;47353;51.614;5.530;2024-03-02T06:51:29;99941.94;;;6.38;100.00
59789;BME280;47353;51.614;5.530;2024-03-02T06:53:54;99940.53;;;6.30;100.00
59789;BME280;47353;51.614;5.530;2024-03-02T06:56:20;99954.03;;;6.37;100.00
59789;BME280;47353;51.614;5.530;2024-03-02T06:58:46;99957.63;;;6.47;100.00
59789;BME280;47353;51.614;5.530;2024-03-02T07:01:12;99959.28;;;6.58;100.00
59789;BME280;47353;51.614;5.530;2024-03-02T07:03:38;99968.66;;;6.67;100.00
59789;BME280;47353;51.614;5.530;2024-03-02T07:06:05;99963.44;;;6.81;100.00
59789;BME280;47353;51.614;5.530;2024-03-02T07:08:30;99962.34;;;7.12;100.00
59789;BME280;47353;51.614;5.530;2024-03-02T07:10:56;99966.72;;;7.33;100.00
59789;BME280;47353;51.614;5.530;2024-03-02T07:13:22;99984.91;;;7.39;100.00
59789;BME280;47353;51.614;5.530;2024-03-02T07:15:48;99970.88;;;7.26;100.00
59789;BME280;47353;51.614;5.530;2024-03-02T07:18:31;99982.69;;;7.31;100.00
59789;BME280;47353;51.614;5.530;2024-03-02T07:20:57;99982.13;;;7.44;100.00
59789;BME280;47353;51.614;5.530;2024-03-02T07:23:27;99983.19;;;7.78;100.00
59789;BME280;47353;51.614;5.530;2024-03-02T07:25:55;99984.59;;;7.61;100.00
59789;BME280;47353;51.614;5.530;2024-03-02T07:28:22;99982.84;;;7.95;100.00
59789;BME280;47353;51.614;5.530;2024-03-02T07:31:01;99988.34;;;8.00;100.00
59789;BME280;47353;51.614;5.530;2024-03-02T07:33:26;99991.63;;;8.07;99.45
59789;BME280;47353;51.614;5.530;2024-03-02T07:35:53;99977.09;;;7.81;100.00
59789;BME280;47353;51.614;5.530;2024-03-02T07:38:19;99991.97;;;7.90;100.00
59789;BME280;47353;51.614;5.530;2024-03-02T07:40:44;99996.09;;;7.88;100.00
59789;BME280;47353;51.614;5.530;2024-03-02T07:43:10;99994.19;;;7.78;100.00
59789;BME280;47353;51.614;5.530;2024-03-02T07:45:35;99987.28;;;7.86;100.00
59789;BME280;47353;51.614;5.530;2024-03-02T07:48:01;99992.19;;;8.04;98.86
59789;BME280;47353;51.614;5.530;2024-03-02T07:50:29;99986.41;;;8.00;98.64
59789;BME280;47353;51.614;5.530;2024-03-02T07:52:55;99985.09;;;7.78;98.55
59789;BME280;47353;51.614;5.530;2024-03-02T07:55:21;99993.59;;;7.96;98.25
59789;BME280;47353;51.614;5.530;2024-03-02T07:57:47;99987.53;;;7.94;96.02
59789;BME280;47353;51.614;5.530;2024-03-02T08:00:12;99992.44;;;8.07;95.34
59789;BME280;47353;51.614;5.530;2024-03-02T08:02:40;100004.03;;;8.09;94.83
59789;BME280;47353;51.614;5.530;2024-03-02T08:05:06;99995.56;;;7.86;96.32
59789;BME280;47353;51.614;5.530;2024-03-02T08:07:31;100004.03;;;7.99;94.66
59789;BME280;47353;51.614;5.530;2024-03-02T08:09:57;99999.66;;;7.98;93.67
59789;BME280;47353;51.614;5.530;2024-03-02T08:12:22;99997.97;;;7.97;94.38
59789;BME280;47353;51.614;5.530;2024-03-02T08:14:48;100000.75;;;7.97;93.83
59789;BME280;47353;51.614;5.530;2024-03-02T08:17:14;100005.97;;;8.04;93.72
59789;BME280;47353;51.614;5.530;2024-03-02T08:19:39;100004.03;;;7.99;94.78
59789;BME280;47353;51.614;5.530;2024-03-02T08:22:05;100008.03;;;8.42;94.66
59789;BME280;47353;51.614;5.530;2024-03-02T08:24:31;100013.47;;;9.01;95.51
59789;BME280;47353;51.614;5.530;2024-03-02T08:26:59;100013.34;;;10.12;88.92
59789;BME280;47353;51.614;5.530;2024-03-02T08:29:24;100013.13;;;10.50;84.39
59789;BME280;47353;51.614;5.530;2024-03-02T08:31:50;100013.72;;;10.66;82.66
59789;BME280;47353;51.614;5.530;2024-03-02T08:34:15;100015.47;;;10.62;79.86
59789;BME280;47353;51.614;5.530;2024-03-02T08:36:41;100014.06;;;11.01;79.86
59789;BME280;47353;51.614;5.530;2024-03-02T08:39:08;100010.63;;;12.06;74.72
59789;BME280;47353;51.614;5.530;2024-03-02T08:41:40;100019.44;;;12.08;69.69
59789;BME280;47353;51.614;5.530;2024-03-02T08:44:06;100013.19;;;11.89;72.09
59789;BME280;47353;51.614;5.530;2024-03-02T08:46:31;100025.44;;;12.15;71.18
59789;BME280;47353;51.614;5.530;2024-03-02T08:48:57;100029.94;;;12.65;67.36
59789;BME280;47353;51.614;5.530;2024-03-02T08:51:22;100027.56;;;12.72;65.48
59789;BME280;47353;51.614;5.530;2024-03-02T08:53:47;100014.22;;;12.60;68.63
59789;BME280;47353;51.614;5.530;2024-03-02T08:56:13;100019.41;;;13.02;65.59
59789;BME280;47353;51.614;5.530;2024-03-02T08:58:38;100022.63;;;13.54;62.10
59789;BME280;47353;51.614;5.530;2024-03-02T09:01:04;100024.34;;;13.05;63.70
59789;BME280;47353;51.614;5.530;2024-03-02T09:03:30;100032.72;;;13.27;61.43
59789;BME280;47353;51.614;5.530;2024-03-02T09:05:58;100006.75;;;12.96;63.50
59789;BME280;47353;51.614;5.530;2024-03-02T09:08:23;100024.47;;;12.87;63.47
59789;BME280;47353;51.614;5.530;2024-03-02T09:10:49;100024.06;;;13.51;63.56
59789;BME280;47353;51.614;5.530;2024-03-02T09:13:14;100017.00;;;13.09;61.95
59789;BME280;47353;51.614;5.530;2024-03-02T09:15:40;100022.94;;;13.52;60.09
59789;BME280;47353;51.614;5.530;2024-03-02T09:18:14;100030.19;;;13.84;59.65
59789;BME280;47353;51.614;5.530;2024-03-02T09:20:40;100021.03;;;13.39;59.94
59789;BME280;47353;51.614;5.530;2024-03-02T09:23:05;100037.06;;;13.42;59.43
59789;BME280;47353;51.614;5.530;2024-03-02T09:25:31;100015.28;;;13.80;56.88
59789;BME280;47353;51.614;5.530;2024-03-02T09:27:56;100021.63;;;13.14;60.10
59789;BME280;47353;51.614;5.530;2024-03-02T09:30:22;100011.81;;;13.30;58.25
59789;BME280;47353;51.614;5.530;2024-03-02T09:32:47;100020.81;;;14.32;54.56
59789;BME280;47353;51.614;5.530;2024-03-02T09:35:13;100023.75;;;14.36;52.96
59789;BME280;47353;51.614;5.530;2024-03-02T09:37:38;100014.66;;;14.52;54.60
59789;BME280;47353;51.614;5.530;2024-03-02T09:40:04;100022.56;;;14.67;52.79
59789;BME280;47353;51.614;5.530;2024-03-02T09:42:31;100019.50;;;14.86;51.77
59789;BME280;47353;51.614;5.530;2024-03-02T09:44:57;100034.13;;;14.13;54.53
59789;BME280;47353;51.614;5.530;2024-03-02T09:47:23;100027.59;;;14.18;55.20
59789;BME280;47353;51.614;5.530;2024-03-02T09:49:49;100025.06;;;14.94;53.75
59789;BME280;47353;51.614;5.530;2024-03-02T09:52:14;100026.41;;;15.23;52.02
59789;BME280;47353;51.614;5.530;2024-03-02T09:54:41;100021.81;;;14.92;50.68
59789;BME280;47353;51.614;5.530;2024-03-02T09:57:06;100025.28;;;15.24;49.63
59789;BME280;47353;51.614;5.530;2024-03-02T09:59:32;100020.22;;;15.68;49.04
59789;BME280;47353;51.614;5.530;2024-03-02T10:02:01;100009.66;;;15.91;48.87
59789;BME280;47353;51.614;5.530;2024-03-02T10:04:28;100019.03;;;16.99;46.74
59789;BME280;47353;51.614;5.530;2024-03-02T10:07:26;100007.47;;;16.51;45.75
59789;BME280;47353;51.614;5.530;2024-03-02T10:09:52;100020.44;;;16.85;46.67
59789;BME280;47353;51.614;5.530;2024-03-02T10:12:18;100027.31;;;17.16;45.20
59789;BME280;47353;51.614;5.530;2024-03-02T10:14:44;100018.25;;;17.19;43.41
59789;BME280;47353;51.614;5.530;2024-03-02T10:17:11;100006.19;;;16.98;43.37
59789;BME280;47353;51.614;5.530;2024-03-02T10:19:37;99999.66;;;16.36;44.18
59789;BME280;47353;51.614;5.530;2024-03-02T10:22:05;99998.75;;;16.52;43.43
59789;BME280;47353;51.614;5.530;2024-03-02T10:27:22;99990.09;;;16.95;43.45
59789;BME280;47353;51.614;5.530;2024-03-02T10:29:48;99999.94;;;17.42;40.84
59789;BME280;47353;51.614;5.530;2024-03-02T10:32:15;100002.34;;;17.52;40.31
59789;BME280;47353;51.614;5.530;2024-03-02T10:34:42;100000.91;;;17.46;41.08
59789;BME280;47353;51.614;5.530;2024-03-02T10:37:08;99994.28;;;17.71;41.08
59789;BME280;47353;51.614;5.530;2024-03-02T10:39:35;99993.38;;;18.48;39.29
59789;BME280;47353;51.614;5.530;2024-03-02T10:42:02;99999.81;;;18.49;38.31
59789;BME280;47353;51.614;5.530;2024-03-02T10:44:28;100004.84;;;18.67;37.86
59789;BME280;47353;51.614;5.530;2024-03-02T10:46:55;99987.69;;;18.57;37.16
59789;BME280;47353;51.614;5.530;2024-03-02T10:49:23;100003.91;;;18.39;36.98
59789;BME280;47353;51.614;5.530;2024-03-02T10:51:50;99987.66;;;18.45;35.86
59789;BME280;47353;51.614;5.530;2024-03-02T10:54:15;99988.84;;;18.80;35.12
59789;BME280;47353;51.614;5.530;2024-03-02T10:56:43;99990.22;;;17.81;35.25
59789;BME280;47353;51.614;5.530;2024-03-02T10:59:34;99981.78;;;18.25;35.25
59789;BME280;47353;51.614;5.530;2024-03-02T11:02:01;99982.31;;;18.64;35.60
59789;BME280;47353;51.614;5.530;2024-03-02T11:04:28;99974.38;;;19.29;35.35
59789;BME280;47353;51.614;5.530;2024-03-02T11:07:08;99974.00;;;19.70;34.60
59789;BME280;47353;51.614;5.530;2024-03-02T11:09:38;99995.59;;;18.31;34.02
59789;BME280;47353;51.614;5.530;2024-03-02T11:12:39;99984.53;;;18.58;35.00
59789;BME280;47353;51.614;5.530;2024-03-02T11:14:58;99977.41;;;19.64;34.30
59789;BME280;47353;51.614;5.530;2024-03-02T11:17:24;99976.22;;;19.37;32.73
59789;BME280;47353;51.614;5.530;2024-03-02T11:19:50;99976.22;;;18.50;34.33
59789;BME280;47353;51.614;5.530;2024-03-02T11:22:16;99971.06;;;18.88;34.74
59789;BME280;47353;51.614;5.530;2024-03-02T11:24:49;99983.81;;;20.51;33.02
59789;BME280;47353;51.614;5.530;2024-03-02T11:32:57;99968.47;;;19.89;33.44
59789;BME280;47353;51.614;5.530;2024-03-02T11:35:24;99972.50;;;19.61;33.86
59789;BME280;47353;51.614;5.530;2024-03-02T11:37:51;99970.16;;;19.23;36.14
59789;BME280;47353;51.614;5.530;2024-03-02T11:40:22;99968.13;;;20.19;32.71
59789;BME280;47353;51.614;5.530;2024-03-02T11:42:48;99969.56;;;21.09;33.23
59789;BME280;47353;51.614;5.530;2024-03-02T11:45:16;99969.22;;;21.87;31.23
59789;BME280;47353;51.614;5.530;2024-03-02T11:47:46;99961.69;;;20.49;33.07
59789;BME280;47353;51.614;5.530;2024-03-02T11:50:15;99968.63;;;20.71;33.24
59789;BME280;47353;51.614;5.530;2024-03-02T11:52:42;99964.34;;;19.99;33.17
59789;BME280;47353;51.614;5.530;2024-03-02T11:55:08;99958.53;;;19.49;34.41
59789;BME280;47353;51.614;5.530;2024-03-02T11:57:35;99960.47;;;19.21;35.35
59789;BME280;47353;51.614;5.530;2024-03-02T12:00:00;99957.94;;;19.43;35.23
59789;BME280;47353;51.614;5.530;2024-03-02T12:02:28;99947.34;;;19.64;35.14
59789;BME280;47353;51.614;5.530;2024-03-02T12:04:54;99947.50;;;19.28;35.08
59789;BME280;47353;51.614;5.530;2024-03-02T12:07:25;99945.28;;;18.46;37.12
59789;BME280;47353;51.614;5.530;2024-03-02T12:10:01;99941.09;;;19.04;35.98
59789;BME280;47353;51.614;5.530;2024-03-02T12:12:28;99934.84;;;19.22;35.86
59789;BME280;47353;51.614;5.530;2024-03-02T12:14:54;99929.72;;;19.24;35.50
59789;BME280;47353;51.614;5.530;2024-03-02T12:17:21;99928.19;;;19.27;35.52
59789;BME280;47353;51.614;5.530;2024-03-02T12:19:47;99925.06;;;18.28;37.15
59789;BME280;47353;51.614;5.530;2024-03-02T12:22:13;99913.66;;;19.64;35.66
59789;BME280;47353;51.614;5.530;2024-03-02T12:24:38;99916.19;;;19.54;34.45
59789;BME280;47353;51.614;5.530;2024-03-02T12:27:12;99916.94;;;17.67;37.41
59789;BME280;47353;51.614;5.530;2024-03-02T12:29:38;99913.41;;;19.02;36.30
59789;BME280;47353;51.614;5.530;2024-03-02T12:32:05;99908.25;;;18.16;38.29
59789;BME280;47353;51.614;5.530;2024-03-02T12:34:31;99896.44;;;18.23;38.37
59789;BME280;47353;51.614;5.530;2024-03-02T12:36:57;99891.88;;;19.18;37.45
59789;BME280;47353;51.614;5.530;2024-03-02T12:39:22;99888.56;;;19.71;35.94
59789;BME280;47353;51.614;5.530;2024-03-02T12:41:49;99880.38;;;19.51;35.80
59789;BME280;47353;51.614;5.530;2024-03-02T12:44:18;99877.31;;;18.37;38.10
59789;BME280;47353;51.614;5.530;2024-03-02T12:46:44;99882.69;;;18.54;39.16
59789;BME280;47353;51.614;5.530;2024-03-02T12:49:11;99887.28;;;19.26;37.73
59789;BME280;47353;51.614;5.530;2024-03-02T12:51:38;99892.66;;;20.36;35.35
59789;BME280;47353;51.614;5.530;2024-03-02T12:54:09;99879.44;;;19.90;35.05
59789;BME280;47353;51.614;5.530;2024-03-02T12:56:36;99889.44;;;21.22;33.83
59789;BME280;47353;51.614;5.530;2024-03-02T12:59:02;99893.78;;;22.22;32.01
59789;BME280;47353;51.614;5.530;2024-03-02T13:01:28;99892.34;;;22.09;32.02
59789;BME280;47353;51.614;5.530;2024-03-02T13:03:54;99890.22;;;21.80;31.48
59789;BME280;47353;51.614;5.530;2024-03-02T13:06:23;99881.41;;;20.36;33.00
59789;BME280;47353;51.614;5.530;2024-03-02T13:08:49;99867.41;;;19.19;35.71
59789;BME280;47353;51.614;5.530;2024-03-02T13:11:16;99871.81;;;19.04;36.03
59789;BME280;47353;51.614;5.530;2024-03-02T13:13:42;99863.38;;;18.65;37.75